sensor_id;sensor_type;location;lat;lon;timestamp;pressure;altitude;pressure_sealevel;temperature;humidity
21623;BME280;10973;46.706;12.340;2023-07-22T00:01:13;87423.56;;;15.37;57.89
21623;BME280;10973;46.706;12.340;2023-07-22T00:03:40;87422.03;;;15.39;58.13
21623;BME280;10973;46.706;12.340;2023-07-22T00:06:09;87419.75;;;15.38;57.94
21623;BME280;10973;46.706;12.340;2023-07-22T00:08:38;87419.81;;;15.34;57.94
21623;BME280;10973;46.706;12.340;2023-07-22T00:11:06;87416.44;;;15.30;57.96
21623;BME280;10973;46.706;12.340;2023-07-22T00:13:34;87412.28;;;15.29;58.00
21623;BME280;10973;46.706;12.340;2023-07-22T00:16:02;87411.16;;;15.27;58.00
21623;BME280;10973;46.706;12.340;2023-07-22T00:18:30;87409.69;;;15.22;58.09
21623;BME280;10973;46.706;12.340;2023-07-22T00:20:58;87409.69;;;15.22;58.23
21623;BME280;10973;46.706;12.340;2023-07-22T00:23:25;87405.94;;;15.20;58.28
21623;BME280;10973;46.706;12.340;2023-07-22T00:25:53;87400.66;;;15.16;58.32
21623;BME280;10973;46.706;12.340;2023-07-22T00:28:20;87399.97;;;15.12;58.21
21623;BME280;10973;46.706;12.340;2023-07-22T00:30:47;87396.53;;;15.12;58.14
21623;BME280;10973;46.706;12.340;2023-07-22T00:33:15;87399.59;;;15.10;58.12
21623;BME280;10973;46.706;12.340;2023-07-22T00:35:43;87397.72;;;15.07;58.23
21623;BME280;10973;46.706;12.340;2023-07-22T00:38:10;87397.81;;;15.00;58.19
21623;BME280;10973;46.706;12.340;2023-07-22T00:40:37;87386.47;;;14.96;58.14
21623;BME280;10973;46.706;12.340;2023-07-22T00:43:05;87395.56;;;14.95;58.13
21623;BME280;10973;46.706;12.340;2023-07-22T00:45:32;87396.69;;;14.97;58.12
21623;BME280;10973;46.706;12.340;2023-07-22T00:47:59;87392.56;;;14.93;58.11
21623;BME280;10973;46.706;12.340;2023-07-22T00:50:27;87393.31;;;14.93;58.07
21623;BME280;10973;46.706;12.340;2023-07-22T00:52:55;87399.41;;;14.90;58.26
21623;BME280;10973;46.706;12.340;2023-07-22T00:55:23;87401.72;;;14.88;58.05
21623;BME280;10973;46.706;12.340;2023-07-22T00:57:50;87404.00;;;14.86;58.00
21623;BME280;10973;46.706;12.340;2023-07-22T01:00:18;87402.94;;;14.80;58.16
21623;BME280;10973;46.706;12.340;2023-07-22T01:02:45;87400.28;;;14.80;57.93
21623;BME280;10973;46.706;12.340;2023-07-22T01:05:13;87399.16;;;14.78;58.08
21623;BME280;10973;46.706;12.340;2023-07-22T01:07:41;87389.75;;;14.73;58.42
21623;BME280;10973;46.706;12.340;2023-07-22T01:10:09;87394.69;;;14.71;58.38
21623;BME280;10973;46.706;12.340;2023-07-22T01:12:37;87390.91;;;14.69;58.56
21623;BME280;10973;46.706;12.340;2023-07-22T01:15:05;87385.25;;;14.67;58.11
21623;BME280;10973;46.706;12.340;2023-07-22T01:17:34;87386.44;;;14.62;58.27
21623;BME280;10973;46.706;12.340;2023-07-22T01:20:05;87389.09;;;14.59;58.55
21623;BME280;10973;46.706;12.340;2023-07-22T01:22:34;87394.06;;;14.57;58.18
21623;BME280;10973;46.706;12.340;2023-07-22T01:25:01;87403.16;;;14.56;58.37
21623;BME280;10973;46.706;12.340;2023-07-22T01:27:29;87395.28;;;14.49;58.52
21623;BME280;10973;46.706;12.340;2023-07-22T01:29:56;87401.34;;;14.49;58.44
21623;BME280;10973;46.706;12.340;2023-07-22T01:32:24;87403.22;;;14.49;58.19
21623;BME280;10973;46.706;12.340;2023-07-22T01:34:51;87406.25;;;14.47;58.07
21623;BME280;10973;46.706;12.340;2023-07-22T01:37:19;87398.69;;;14.46;58.16
21623;BME280;10973;46.706;12.340;2023-07-22T01:39:46;87394.56;;;14.41;58.23
21623;BME280;10973;46.706;12.340;2023-07-22T01:42:13;87400.66;;;14.38;58.48
21623;BME280;10973;46.706;12.340;2023-07-22T01:44:41;87399.94;;;14.34;58.25
21623;BME280;10973;46.706;12.340;2023-07-22T01:47:08;87407.53;;;14.32;58.46
21623;BME280;10973;46.706;12.340;2023-07-22T01:49:36;87406.00;;;14.31;58.63
21623;BME280;10973;46.706;12.340;2023-07-22T01:52:04;87404.88;;;14.28;58.51
21623;BME280;10973;46.706;12.340;2023-07-22T01:54:31;87404.88;;;14.28;58.51
21623;BME280;10973;46.706;12.340;2023-07-22T01:56:59;87410.56;;;14.27;58.59
21623;BME280;10973;46.706;12.340;2023-07-22T01:59:26;87404.56;;;14.19;58.75
21623;BME280;10973;46.706;12.340;2023-07-22T02:01:54;87407.22;;;14.19;58.59
21623;BME280;10973;46.706;12.340;2023-07-22T02:04:21;87414.06;;;14.13;58.56
21623;BME280;10973;46.706;12.340;2023-07-22T02:06:49;87415.19;;;14.16;58.58
21623;BME280;10973;46.706;12.340;2023-07-22T02:09:16;87426.19;;;14.11;58.77
21623;BME280;10973;46.706;12.340;2023-07-22T02:11:43;87420.53;;;14.09;58.81
21623;BME280;10973;46.706;12.340;2023-07-22T02:14:11;87416.75;;;14.10;58.94
21623;BME280;10973;46.706;12.340;2023-07-22T02:16:38;87419.03;;;14.08;58.88
21623;BME280;10973;46.706;12.340;2023-07-22T02:19:05;87426.22;;;14.07;59.00
21623;BME280;10973;46.706;12.340;2023-07-22T02:21:33;87418.28;;;14.07;58.90
21623;BME280;10973;46.706;12.340;2023-07-22T02:24:00;87428.13;;;14.07;58.87
21623;BME280;10973;46.706;12.340;2023-07-22T02:26:28;87421.69;;;14.04;58.82
21623;BME280;10973;46.706;12.340;2023-07-22T02:28:56;87416.41;;;14.04;58.82
21623;BME280;10973;46.706;12.340;2023-07-22T02:31:24;87434.56;;;14.02;58.92
21623;BME280;10973;46.706;12.340;2023-07-22T02:33:51;87434.56;;;14.02;58.89
21623;BME280;10973;46.706;12.340;2023-07-22T02:36:18;87424.75;;;13.99;58.80
21623;BME280;10973;46.706;12.340;2023-07-22T02:38:46;87425.91;;;13.98;58.53
21623;BME280;10973;46.706;12.340;2023-07-22T02:41:13;87427.81;;;13.94;58.84
21623;BME280;10973;46.706;12.340;2023-07-22T02:43:41;87418.72;;;13.95;58.67
21623;BME280;10973;46.706;12.340;2023-07-22T02:46:08;87425.19;;;13.94;58.64
21623;BME280;10973;46.706;12.340;2023-07-22T02:48:35;87424.06;;;13.92;58.75
21623;BME280;10973;46.706;12.340;2023-07-22T02:51:08;87419.53;;;13.89;58.62
21623;BME280;10973;46.706;12.340;2023-07-22T02:53:36;87424.84;;;13.85;58.69
21623;BME280;10973;46.706;12.340;2023-07-22T02:56:05;87431.28;;;13.84;58.63
21623;BME280;10973;46.706;12.340;2023-07-22T02:58:34;87438.88;;;13.82;58.77
21623;BME280;10973;46.706;12.340;2023-07-22T03:01:06;87443.03;;;13.80;58.88
21623;BME280;10973;46.706;12.340;2023-07-22T03:03:34;87432.13;;;13.74;58.75
21623;BME280;10973;46.706;12.340;2023-07-22T03:06:02;87443.44;;;13.75;58.91
21623;BME280;10973;46.706;12.340;2023-07-22T03:08:30;87446.88;;;13.72;58.79
21623;BME280;10973;46.706;12.340;2023-07-22T03:10:58;87455.19;;;13.70;58.90
21623;BME280;10973;46.706;12.340;2023-07-22T03:13:25;87453.31;;;13.67;59.13
21623;BME280;10973;46.706;12.340;2023-07-22T03:15:52;87457.88;;;13.63;58.96
21623;BME280;10973;46.706;12.340;2023-07-22T03:18:20;87455.25;;;13.59;58.67
21623;BME280;10973;46.706;12.340;2023-07-22T03:20:48;87463.19;;;13.59;58.71
21623;BME280;10973;46.706;12.340;2023-07-22T03:23:16;87457.91;;;13.59;58.34
21623;BME280;10973;46.706;12.340;2023-07-22T03:25:43;87453.00;;;13.54;58.56
21623;BME280;10973;46.706;12.340;2023-07-22T03:28:11;87455.28;;;13.56;58.71
21623;BME280;10973;46.706;12.340;2023-07-22T03:30:38;87459.06;;;13.51;58.77
21623;BME280;10973;46.706;12.340;2023-07-22T03:33:06;87462.09;;;13.50;58.69
21623;BME280;10973;46.706;12.340;2023-07-22T03:35:33;87469.28;;;13.49;58.87
21623;BME280;10973;46.706;12.340;2023-07-22T03:38:01;87460.63;;;13.42;59.17
21623;BME280;10973;46.706;12.340;2023-07-22T03:40:28;87468.19;;;13.47;58.74
21623;BME280;10973;46.706;12.340;2023-07-22T03:42:57;87475.34;;;13.43;58.74
21623;BME280;10973;46.706;12.340;2023-07-22T03:45:25;87471.22;;;13.42;58.71
21623;BME280;10973;46.706;12.340;2023-07-22T03:47:57;87471.97;;;13.42;58.98
21623;BME280;10973;46.706;12.340;2023-07-22T03:50:25;87474.22;;;13.40;59.02
21623;BME280;10973;46.706;12.340;2023-07-22T03:52:52;87481.44;;;13.40;59.25
21623;BME280;10973;46.706;12.340;2023-07-22T03:55:20;87477.25;;;13.39;59.31
21623;BME280;10973;46.706;12.340;2023-07-22T03:57:48;87479.91;;;13.42;59.06
21623;BME280;10973;46.706;12.340;2023-07-22T04:00:15;87478.38;;;13.41;59.17
21623;BME280;10973;46.706;12.340;2023-07-22T04:02:43;87475.75;;;13.38;59.51
21623;BME280;10973;46.706;12.340;2023-07-22T04:05:11;87479.19;;;13.35;59.34
21623;BME280;10973;46.706;12.340;2023-07-22T04:07:38;87479.53;;;13.37;59.24
21623;BME280;10973;46.706;12.340;2023-07-22T04:10:07;87488.59;;;13.36;59.21
21623;BME280;10973;46.706;12.340;2023-07-22T04:12:34;87487.09;;;13.38;59.21
21623;BME280;10973;46.706;12.340;2023-07-22T04:15:02;87493.16;;;13.39;59.59
21623;BME280;10973;46.706;12.340;2023-07-22T04:17:29;87493.88;;;13.43;59.96
21623;BME280;10973;46.706;12.340;2023-07-22T04:19:57;87487.06;;;13.45;60.06
21623;BME280;10973;46.706;12.340;2023-07-22T04:22:24;87483.63;;;13.52;60.10
21623;BME280;10973;46.706;12.340;2023-07-22T04:24:52;87478.72;;;13.57;60.02
21623;BME280;10973;46.706;12.340;2023-07-22T04:27:20;87475.31;;;13.57;60.29
21623;BME280;10973;46.706;12.340;2023-07-22T04:29:47;87478.31;;;13.59;60.63
21623;BME280;10973;46.706;12.340;2023-07-22T04:32:15;87482.47;;;13.64;60.87
21623;BME280;10973;46.706;12.340;2023-07-22T04:34:42;87471.06;;;13.70;60.69
21623;BME280;10973;46.706;12.340;2023-07-22T04:37:19;87469.56;;;13.73;61.05
21623;BME280;10973;46.706;12.340;2023-07-22T04:39:49;87469.91;;;13.78;61.12
21623;BME280;10973;46.706;12.340;2023-07-22T04:42:17;87473.31;;;13.82;61.39
21623;BME280;10973;46.706;12.340;2023-07-22T04:44:44;87478.97;;;13.84;61.42
21623;BME280;10973;46.706;12.340;2023-07-22T04:47:12;87472.91;;;13.87;61.60
21623;BME280;10973;46.706;12.340;2023-07-22T04:49:39;87469.09;;;13.92;61.99
21623;BME280;10973;46.706;12.340;2023-07-22T04:52:07;87476.25;;;13.98;62.08
21623;BME280;10973;46.706;12.340;2023-07-22T04:54:34;87483.78;;;14.03;62.23
21623;BME280;10973;46.706;12.340;2023-07-22T04:57:02;87472.75;;;14.12;62.21
21623;BME280;10973;46.706;12.340;2023-07-22T04:59:30;87472.72;;;14.19;62.53
21623;BME280;10973;46.706;12.340;2023-07-22T05:01:57;87470.75;;;14.26;62.67
21623;BME280;10973;46.706;12.340;2023-07-22T05:04:24;87474.91;;;14.35;62.65
21623;BME280;10973;46.706;12.340;2023-07-22T05:06:52;87473.72;;;14.43;62.69
21623;BME280;10973;46.706;12.340;2023-07-22T05:09:19;87468.75;;;14.48;62.61
21623;BME280;10973;46.706;12.340;2023-07-22T05:11:46;87474.41;;;14.54;62.88
21623;BME280;10973;46.706;12.340;2023-07-22T05:14:14;87479.63;;;14.61;62.77
21623;BME280;10973;46.706;12.340;2023-07-22T05:16:41;87476.19;;;14.67;62.92
21623;BME280;10973;46.706;12.340;2023-07-22T05:19:08;87478.41;;;14.76;63.00
21623;BME280;10973;46.706;12.340;2023-07-22T05:21:36;87472.28;;;14.79;62.65
21623;BME280;10973;46.706;12.340;2023-07-22T05:24:03;87471.13;;;14.83;62.56
21623;BME280;10973;46.706;12.340;2023-07-22T05:26:31;87473.00;;;14.86;62.78
21623;BME280;10973;46.706;12.340;2023-07-22T05:28:58;87483.19;;;14.88;62.83
21623;BME280;10973;46.706;12.340;2023-07-22T05:31:26;87485.84;;;14.91;62.81
21623;BME280;10973;46.706;12.340;2023-07-22T05:33:53;87473.34;;;14.92;62.80
21623;BME280;10973;46.706;12.340;2023-07-22T05:36:21;87470.28;;;14.93;62.58
21623;BME280;10973;46.706;12.340;2023-07-22T05:38:49;87466.84;;;14.96;62.54
21623;BME280;10973;46.706;12.340;2023-07-22T05:41:16;87462.66;;;14.99;62.21
21623;BME280;10973;46.706;12.340;2023-07-22T05:43:44;87460.38;;;15.01;62.44
21623;BME280;10973;46.706;12.340;2023-07-22T05:46:11;87457.72;;;15.01;62.63
21623;BME280;10973;46.706;12.340;2023-07-22T05:48:39;87463.72;;;15.05;62.68
21623;BME280;10973;46.706;12.340;2023-07-22T05:51:06;87464.44;;;15.13;62.88
21623;BME280;10973;46.706;12.340;2023-07-22T05:53:34;87465.50;;;15.19;62.99
21623;BME280;10973;46.706;12.340;2023-07-22T05:56:01;87461.22;;;15.28;62.81
21623;BME280;10973;46.706;12.340;2023-07-22T05:58:28;87456.94;;;15.38;62.73
21623;BME280;10973;46.706;12.340;2023-07-22T06:00:56;87461.47;;;15.44;62.53
21623;BME280;10973;46.706;12.340;2023-07-22T06:03:24;87463.66;;;15.49;62.43
21623;BME280;10973;46.706;12.340;2023-07-22T06:05:51;87462.06;;;15.59;62.82
21623;BME280;10973;46.706;12.340;2023-07-22T06:08:19;87452.47;;;15.68;62.24
21623;BME280;10973;46.706;12.340;2023-07-22T06:10:46;87452.38;;;15.76;62.02
21623;BME280;10973;46.706;12.340;2023-07-22T06:13:14;87458.38;;;15.83;62.05
21623;BME280;10973;46.706;12.340;2023-07-22T06:15:41;87457.88;;;15.92;61.91
21623;BME280;10973;46.706;12.340;2023-07-22T06:18:09;87466.09;;;16.01;61.56
21623;BME280;10973;46.706;12.340;2023-07-22T06:20:36;87467.47;;;16.12;61.52
21623;BME280;10973;46.706;12.340;2023-07-22T06:23:04;87463.91;;;16.22;61.15
21623;BME280;10973;46.706;12.340;2023-07-22T06:25:31;87466.47;;;16.29;60.77
21623;BME280;10973;46.706;12.340;2023-07-22T06:27:59;87467.91;;;16.37;60.56
21623;BME280;10973;46.706;12.340;2023-07-22T06:30:26;87464.75;;;16.42;60.27
21623;BME280;10973;46.706;12.340;2023-07-22T06:32:54;87458.56;;;16.53;59.88
21623;BME280;10973;46.706;12.340;2023-07-22T06:35:22;87456.16;;;16.62;59.14
21623;BME280;10973;46.706;12.340;2023-07-22T06:37:49;87466.00;;;16.65;58.99
21623;BME280;10973;46.706;12.340;2023-07-22T06:40:18;87465.50;;;16.73;59.14
21623;BME280;10973;46.706;12.340;2023-07-22T06:42:45;87461.91;;;16.83;59.45
21623;BME280;10973;46.706;12.340;2023-07-22T06:45:13;87463.31;;;16.91;59.75
21623;BME280;10973;46.706;12.340;2023-07-22T06:47:40;87459.00;;;16.97;59.30
21623;BME280;10973;46.706;12.340;2023-07-22T06:50:08;87471.06;;;17.05;58.90
21623;BME280;10973;46.706;12.340;2023-07-22T06:52:35;87463.69;;;17.13;58.95
21623;BME280;10973;46.706;12.340;2023-07-22T06:55:03;87466.19;;;17.24;58.84
21623;BME280;10973;46.706;12.340;2023-07-22T06:57:32;87461.09;;;17.33;58.49
21623;BME280;10973;46.706;12.340;2023-07-22T07:00:00;87461.69;;;17.40;58.14
21623;BME280;10973;46.706;12.340;2023-07-22T07:02:28;87474.13;;;17.47;57.41
21623;BME280;10973;46.706;12.340;2023-07-22T07:04:55;87465.34;;;17.50;57.24
21623;BME280;10973;46.706;12.340;2023-07-22T07:07:23;87466.81;;;17.54;57.06
21623;BME280;10973;46.706;12.340;2023-07-22T07:09:51;87471.75;;;17.56;57.16
21623;BME280;10973;46.706;12.340;2023-07-22T07:12:18;87471.66;;;17.59;57.38
21623;BME280;10973;46.706;12.340;2023-07-22T07:14:46;87474.34;;;17.59;57.15
21623;BME280;10973;46.706;12.340;2023-07-22T07:17:17;87465.25;;;17.57;56.88
21623;BME280;10973;46.706;12.340;2023-07-22T07:19:45;87471.00;;;17.55;56.64
21623;BME280;10973;46.706;12.340;2023-07-22T07:22:13;87468.94;;;17.63;56.69
21623;BME280;10973;46.706;12.340;2023-07-22T07:24:40;87474.41;;;17.75;56.79
21623;BME280;10973;46.706;12.340;2023-07-22T07:27:08;87468.63;;;17.80;56.92
21623;BME280;10973;46.706;12.340;2023-07-22T07:29:35;87470.72;;;17.89;56.50
21623;BME280;10973;46.706;12.340;2023-07-22T07:32:06;87472.84;;;17.98;55.87
21623;BME280;10973;46.706;12.340;2023-07-22T07:34:33;87471.34;;;17.97;55.54
21623;BME280;10973;46.706;12.340;2023-07-22T07:37:01;87483.78;;;18.03;55.10
21623;BME280;10973;46.706;12.340;2023-07-22T07:39:29;87479.56;;;18.06;54.85
21623;BME280;10973;46.706;12.340;2023-07-22T07:41:57;87480.16;;;18.13;54.74
21623;BME280;10973;46.706;12.340;2023-07-22T07:44:24;87477.00;;;18.18;54.99
21623;BME280;10973;46.706;12.340;2023-07-22T07:46:52;87471.44;;;18.29;55.19
21623;BME280;10973;46.706;12.340;2023-07-22T07:49:20;87478.72;;;18.44;55.46
21623;BME280;10973;46.706;12.340;2023-07-22T07:51:47;87481.56;;;18.57;54.75
21623;BME280;10973;46.706;12.340;2023-07-22T07:54:15;87472.22;;;18.65;53.97
21623;BME280;10973;46.706;12.340;2023-07-22T07:56:42;87475.06;;;18.74;54.08
21623;BME280;10973;46.706;12.340;2023-07-22T07:59:09;87474.50;;;18.83;54.43
21623;BME280;10973;46.706;12.340;2023-07-22T08:01:37;87461.72;;;18.90;53.95
21623;BME280;10973;46.706;12.340;2023-07-22T08:04:04;87465.75;;;18.98;53.42
21623;BME280;10973;46.706;12.340;2023-07-22T08:06:32;87465.25;;;19.03;53.25
21623;BME280;10973;46.706;12.340;2023-07-22T08:08:59;87470.50;;;19.07;53.02
21623;BME280;10973;46.706;12.340;2023-07-22T08:11:26;87467.66;;;19.14;53.16
21623;BME280;10973;46.706;12.340;2023-07-22T08:13:54;87466.16;;;19.13;52.27
21623;BME280;10973;46.706;12.340;2023-07-22T08:16:21;87476.34;;;19.18;52.51
21623;BME280;10973;46.706;12.340;2023-07-22T08:18:50;87466.31;;;19.22;52.29
21623;BME280;10973;46.706;12.340;2023-07-22T08:21:18;87465.59;;;19.21;52.67
21623;BME280;10973;46.706;12.340;2023-07-22T08:23:46;87463.66;;;19.22;52.53
21623;BME280;10973;46.706;12.340;2023-07-22T08:26:13;87458.63;;;19.24;52.31
21623;BME280;10973;46.706;12.340;2023-07-22T08:28:40;87465.81;;;19.27;52.57
21623;BME280;10973;46.706;12.340;2023-07-22T08:31:08;87455.56;;;19.26;52.15
21623;BME280;10973;46.706;12.340;2023-07-22T08:33:35;87458.47;;;19.31;52.26
21623;BME280;10973;46.706;12.340;2023-07-22T08:36:08;87455.38;;;19.33;52.64
21623;BME280;10973;46.706;12.340;2023-07-22T08:38:36;87453.81;;;19.35;53.29
21623;BME280;10973;46.706;12.340;2023-07-22T08:41:04;87451.81;;;19.39;52.95
21623;BME280;10973;46.706;12.340;2023-07-22T08:43:34;87449.53;;;19.38;52.91
21623;BME280;10973;46.706;12.340;2023-07-22T08:46:07;87459.31;;;19.44;52.75
21623;BME280;10973;46.706;12.340;2023-07-22T08:48:41;87453.13;;;19.47;52.75
21623;BME280;10973;46.706;12.340;2023-07-22T08:51:16;87449.94;;;19.52;52.25
21623;BME280;10973;46.706;12.340;2023-07-22T08:53:47;87448.34;;;19.55;52.46
21623;BME280;10973;46.706;12.340;2023-07-22T08:56:34;87449.13;;;19.55;52.12
21623;BME280;10973;46.706;12.340;2023-07-22T08:59:02;87446.66;;;19.61;51.40
21623;BME280;10973;46.706;12.340;2023-07-22T09:01:32;87449.66;;;19.63;51.19
21623;BME280;10973;46.706;12.340;2023-07-22T09:04:00;87451.81;;;19.68;51.39
21623;BME280;10973;46.706;12.340;2023-07-22T09:06:28;87453.88;;;19.76;51.35
21623;BME280;10973;46.706;12.340;2023-07-22T09:08:57;87454.56;;;19.80;51.35
21623;BME280;10973;46.706;12.340;2023-07-22T09:11:26;87455.88;;;19.88;51.02
21623;BME280;10973;46.706;12.340;2023-07-22T09:13:55;87449.44;;;19.86;51.64
21623;BME280;10973;46.706;12.340;2023-07-22T09:16:26;87449.47;;;19.70;49.32
21623;BME280;10973;46.706;12.340;2023-07-22T09:18:58;87439.69;;;19.79;49.57
21623;BME280;10973;46.706;12.340;2023-07-22T09:21:26;87441.41;;;19.86;50.25
21623;BME280;10973;46.706;12.340;2023-07-22T09:23:53;87433.50;;;19.82;50.39
21623;BME280;10973;46.706;12.340;2023-07-22T09:26:21;87431.38;;;19.90;49.91
21623;BME280;10973;46.706;12.340;2023-07-22T09:28:53;87427.00;;;19.96;49.58
21623;BME280;10973;46.706;12.340;2023-07-22T09:31:23;87428.63;;;20.06;49.57
21623;BME280;10973;46.706;12.340;2023-07-22T09:33:52;87423.72;;;20.17;50.66
21623;BME280;10973;46.706;12.340;2023-07-22T09:36:19;87405.56;;;20.25;49.05
21623;BME280;10973;46.706;12.340;2023-07-22T09:39:07;87397.66;;;20.34;47.80
21623;BME280;10973;46.706;12.340;2023-07-22T09:41:42;87395.94;;;20.40;49.08
21623;BME280;10973;46.706;12.340;2023-07-22T09:44:12;87383.97;;;20.44;48.54
21623;BME280;10973;46.706;12.340;2023-07-22T09:46:40;87383.03;;;20.51;48.37
21623;BME280;10973;46.706;12.340;2023-07-22T09:49:09;87386.44;;;20.64;48.24
21623;BME280;10973;46.706;12.340;2023-07-22T09:51:39;87400.69;;;20.74;48.70
21623;BME280;10973;46.706;12.340;2023-07-22T09:54:27;87418.56;;;20.77;47.29
21623;BME280;10973;46.706;12.340;2023-07-22T09:56:54;87434.09;;;20.82;46.46
21623;BME280;10973;46.706;12.340;2023-07-22T09:59:22;87436.78;;;20.82;46.51
21623;BME280;10973;46.706;12.340;2023-07-22T10:01:51;87458.94;;;20.70;46.77
21623;BME280;10973;46.706;12.340;2023-07-22T10:04:25;87463.56;;;20.56;46.43
21623;BME280;10973;46.706;12.340;2023-07-22T10:06:56;87456.03;;;20.39;46.50
21623;BME280;10973;46.706;12.340;2023-07-22T10:09:25;87441.97;;;20.22;46.89
21623;BME280;10973;46.706;12.340;2023-07-22T10:11:55;87429.94;;;20.14;46.31
21623;BME280;10973;46.706;12.340;2023-07-22T10:14:23;87430.13;;;20.07;46.88
21623;BME280;10973;46.706;12.340;2023-07-22T10:16:52;87441.28;;;20.06;47.47
21623;BME280;10973;46.706;12.340;2023-07-22T10:19:21;87434.97;;;20.12;48.42
21623;BME280;10973;46.706;12.340;2023-07-22T10:21:49;87438.06;;;20.11;47.73
21623;BME280;10973;46.706;12.340;2023-07-22T10:24:17;87428.31;;;20.04;47.27
21623;BME280;10973;46.706;12.340;2023-07-22T10:26:45;87416.19;;;20.00;47.65
21623;BME280;10973;46.706;12.340;2023-07-22T10:29:14;87412.16;;;20.08;47.66
21623;BME280;10973;46.706;12.340;2023-07-22T10:31:42;87406.28;;;20.13;48.20
21623;BME280;10973;46.706;12.340;2023-07-22T10:34:09;87414.03;;;20.23;48.01
21623;BME280;10973;46.706;12.340;2023-07-22T10:36:37;87407.72;;;20.42;48.14
21623;BME280;10973;46.706;12.340;2023-07-22T10:39:04;87399.72;;;20.55;46.73
21623;BME280;10973;46.706;12.340;2023-07-22T10:41:33;87404.19;;;20.58;45.94
21623;BME280;10973;46.706;12.340;2023-07-22T10:44:09;87401.09;;;20.72;46.42
21623;BME280;10973;46.706;12.340;2023-07-22T10:46:38;87387.91;;;20.90;46.52
21623;BME280;10973;46.706;12.340;2023-07-22T10:49:14;87383.41;;;21.00;45.62
21623;BME280;10973;46.706;12.340;2023-07-22T10:51:48;87378.38;;;21.14;46.10
21623;BME280;10973;46.706;12.340;2023-07-22T10:54:34;87380.56;;;21.28;45.40
21623;BME280;10973;46.706;12.340;2023-07-22T10:59:50;87383.50;;;21.56;45.20
21623;BME280;10973;46.706;12.340;2023-07-22T11:02:26;87380.97;;;21.74;44.90
21623;BME280;10973;46.706;12.340;2023-07-22T11:04:59;87372.81;;;21.99;44.75
21623;BME280;10973;46.706;12.340;2023-07-22T11:07:43;87373.31;;;22.28;44.62
21623;BME280;10973;46.706;12.340;2023-07-22T11:10:18;87382.81;;;22.51;44.08
21623;BME280;10973;46.706;12.340;2023-07-22T11:12:48;87374.69;;;22.63;42.98
21623;BME280;10973;46.706;12.340;2023-07-22T11:15:16;87369.31;;;22.63;43.13
21623;BME280;10973;46.706;12.340;2023-07-22T11:17:43;87373.81;;;22.66;43.47
21623;BME280;10973;46.706;12.340;2023-07-22T11:20:11;87362.13;;;22.60;44.00
21623;BME280;10973;46.706;12.340;2023-07-22T11:22:41;87364.16;;;22.47;43.49
21623;BME280;10973;46.706;12.340;2023-07-22T11:25:09;87363.50;;;22.34;43.87
21623;BME280;10973;46.706;12.340;2023-07-22T11:27:44;87357.41;;;22.12;45.11
21623;BME280;10973;46.706;12.340;2023-07-22T11:30:12;87366.28;;;22.00;45.63
21623;BME280;10973;46.706;12.340;2023-07-22T11:32:42;87377.22;;;21.71;45.32
21623;BME280;10973;46.706;12.340;2023-07-22T11:35:10;87377.97;;;21.38;46.31
21623;BME280;10973;46.706;12.340;2023-07-22T11:37:37;87369.22;;;21.24;47.04
21623;BME280;10973;46.706;12.340;2023-07-22T11:40:05;87373.66;;;21.18;47.83
21623;BME280;10973;46.706;12.340;2023-07-22T11:42:34;87369.28;;;21.12;48.20
21623;BME280;10973;46.706;12.340;2023-07-22T11:45:03;87363.16;;;21.11;48.01
21623;BME280;10973;46.706;12.340;2023-07-22T11:47:30;87365.94;;;20.95;47.92
21623;BME280;10973;46.706;12.340;2023-07-22T11:49:58;87361.91;;;20.78;48.26
21623;BME280;10973;46.706;12.340;2023-07-22T11:52:26;87384.19;;;20.63;48.51
21623;BME280;10973;46.706;12.340;2023-07-22T11:54:53;87379.69;;;20.47;49.80
21623;BME280;10973;46.706;12.340;2023-07-22T11:57:26;87373.03;;;20.51;50.14
21623;BME280;10973;46.706;12.340;2023-07-22T11:59:56;87372.28;;;20.63;50.54
21623;BME280;10973;46.706;12.340;2023-07-22T12:02:27;87364.28;;;20.76;51.65
21623;BME280;10973;46.706;12.340;2023-07-22T12:05:08;87360.81;;;21.01;50.93
21623;BME280;10973;46.706;12.340;2023-07-22T12:07:41;87360.69;;;21.04;49.10
21623;BME280;10973;46.706;12.340;2023-07-22T12:10:09;87361.78;;;21.07;50.41
21623;BME280;10973;46.706;12.340;2023-07-22T12:18:00;87347.41;;;21.69;48.99
21623;BME280;10973;46.706;12.340;2023-07-22T12:20:34;87346.16;;;22.05;48.81
21623;BME280;10973;46.706;12.340;2023-07-22T12:23:02;87344.97;;;22.27;47.94
21623;BME280;10973;46.706;12.340;2023-07-22T12:25:41;87337.59;;;22.49;47.09
21623;BME280;10973;46.706;12.340;2023-07-22T12:28:29;87333.22;;;22.64;46.51
21623;BME280;10973;46.706;12.340;2023-07-22T12:30:56;87331.72;;;22.63;46.69
21623;BME280;10973;46.706;12.340;2023-07-22T12:33:24;87323.06;;;22.68;46.52
21623;BME280;10973;46.706;12.340;2023-07-22T12:35:56;87322.97;;;22.50;46.04
21623;BME280;10973;46.706;12.340;2023-07-22T12:40:51;87335.94;;;22.12;45.87
21623;BME280;10973;46.706;12.340;2023-07-22T12:43:19;87319.72;;;21.94;46.58
21623;BME280;10973;46.706;12.340;2023-07-22T12:45:46;87329.72;;;21.81;47.11
21623;BME280;10973;46.706;12.340;2023-07-22T12:48:14;87322.22;;;21.67;47.78
21623;BME280;10973;46.706;12.340;2023-07-22T12:50:46;87320.03;;;21.53;46.94
21623;BME280;10973;46.706;12.340;2023-07-22T12:53:14;87316.97;;;21.42;47.10
21623;BME280;10973;46.706;12.340;2023-07-22T12:55:41;87309.34;;;21.40;47.55
21623;BME280;10973;46.706;12.340;2023-07-22T12:58:09;87294.63;;;21.45;48.14
21623;BME280;10973;46.706;12.340;2023-07-22T13:00:36;87285.41;;;21.46;48.22
21623;BME280;10973;46.706;12.340;2023-07-22T13:03:04;87271.75;;;21.53;48.16
21623;BME280;10973;46.706;12.340;2023-07-22T13:05:31;87291.44;;;21.59;47.81
21623;BME280;10973;46.706;12.340;2023-07-22T13:07:58;87288.25;;;21.51;48.13